createdAt,value
2017-04-19T00:00:01.665Z,1015.08
2017-04-19T00:00:43.695Z,1015.06
2017-04-19T00:01:26.856Z,1015.05
2017-04-19T00:02:07.434Z,1015.05
2017-04-19T00:02:47.952Z,1015.04
2017-04-19T00:03:28.408Z,1015.02
2017-04-19T00:04:08.926Z,1015.06
2017-04-19T00:04:49.373Z,1015.02
2017-04-19T00:05:29.894Z,1015.02
2017-04-19T00:06:10.354Z,1015.06
2017-04-19T00:06:50.871Z,1015.07
2017-04-19T00:07:31.346Z,1015.01
2017-04-19T00:08:11.845Z,1015.05
2017-04-19T00:08:52.341Z,1015.04
2017-04-19T00:09:32.848Z,1015.03
2017-04-19T00:10:13.371Z,1014.97
2017-04-19T00:10:53.850Z,1015
2017-04-19T00:11:34.367Z,1015.01
2017-04-19T00:12:14.864Z,1015.03
2017-04-19T00:12:55.349Z,1015.09
2017-04-19T00:13:35.824Z,1015.01
2017-04-19T00:14:16.340Z,1014.95
2017-04-19T00:14:57.030Z,1015.02
2017-04-19T00:15:37.533Z,1015.02
2017-04-19T00:16:17.986Z,1015.07
2017-04-19T00:16:58.476Z,1015.08
2017-04-19T00:17:39.009Z,1015.05
2017-04-19T00:18:19.485Z,1015.07
2017-04-19T00:18:59.964Z,1015.06
2017-04-19T00:19:40.440Z,1015.02
2017-04-19T00:20:21.077Z,1015.05
2017-04-19T00:21:01.612Z,1015.08
2017-04-19T00:21:42.080Z,1015.04
2017-04-19T00:22:22.597Z,1015.03
2017-04-19T00:23:03.057Z,1014.99
2017-04-19T00:23:43.597Z,1015.03
2017-04-19T00:24:24.047Z,1015.05
2017-04-19T00:25:04.573Z,1015.09
2017-04-19T00:25:45.025Z,1015.02
2017-04-19T00:26:25.509Z,1015.02
2017-04-19T00:27:06.008Z,1015.02
2017-04-19T00:27:46.499Z,1015.02
2017-04-19T00:28:26.966Z,1015.05
2017-04-19T00:29:07.484Z,1015.03
2017-04-19T00:29:47.976Z,1015.07
2017-04-19T00:30:28.470Z,1015.04
2017-04-19T00:31:09.001Z,1015.03
2017-04-19T00:31:49.513Z,1015.06
2017-04-19T00:32:30.004Z,1015.03
2017-04-19T00:33:10.435Z,1015.05
2017-04-19T00:33:50.969Z,1015.09
2017-04-19T00:34:31.398Z,1015.04
2017-04-19T00:35:11.915Z,1015.09
2017-04-19T00:35:52.412Z,1015.06
2017-04-19T00:36:32.877Z,1015.09
2017-04-19T00:37:13.392Z,1015.09
2017-04-19T00:37:53.859Z,1015.09
2017-04-19T00:38:34.368Z,1015.11
2017-04-19T00:39:14.881Z,1015.1
2017-04-19T00:39:55.485Z,1015.07
2017-04-19T00:40:35.910Z,1015.07
2017-04-19T00:41:16.372Z,1015.12
2017-04-19T00:41:56.887Z,1015.08
2017-04-19T00:42:37.374Z,1015.08
2017-04-19T00:43:17.862Z,1015.11
2017-04-19T00:43:58.326Z,1015.09
2017-04-19T00:44:38.819Z,1015.06
2017-04-19T00:45:19.322Z,1015.09
2017-04-19T00:45:59.779Z,1015.11
2017-04-19T00:46:40.265Z,1015.11
2017-04-19T00:47:20.769Z,1015.11
2017-04-19T00:48:01.271Z,1015.07
2017-04-19T00:48:41.714Z,1015.11
2017-04-19T00:49:22.221Z,1015.11
2017-04-19T00:50:02.699Z,1015.11
2017-04-19T00:50:43.270Z,1015.12
2017-04-19T00:51:23.733Z,1015.06
2017-04-19T00:52:04.217Z,1015.08
2017-04-19T00:52:44.711Z,1015.09
2017-04-19T00:53:25.157Z,1015.1
2017-04-19T00:54:05.655Z,1015.11
2017-04-19T00:54:46.189Z,1015.11
2017-04-19T00:55:26.750Z,1015.1
2017-04-19T00:56:07.247Z,1015.11
2017-04-19T00:56:47.709Z,1015.11
2017-04-19T00:57:28.188Z,1015.14
2017-04-19T00:58:08.662Z,1015.1
2017-04-19T00:58:49.150Z,1015.11
2017-04-19T00:59:29.656Z,1015.13
2017-04-19T01:00:10.125Z,1015.14
2017-04-19T01:00:50.584Z,1015.18
2017-04-19T01:01:31.064Z,1015.16
2017-04-19T01:02:11.528Z,1015.16
2017-04-19T01:02:52.041Z,1015.2
2017-04-19T01:03:32.529Z,1015.14
2017-04-19T01:04:13.052Z,1015.19
2017-04-19T01:04:53.513Z,1015.19
2017-04-19T01:05:33.999Z,1015.15
2017-04-19T01:06:14.494Z,1015.17
2017-04-19T01:06:55.005Z,1015.2
2017-04-19T01:07:35.493Z,1015.18
2017-04-19T01:08:15.943Z,1015.15
2017-04-19T01:08:56.446Z,1015.17
2017-04-19T01:09:37.386Z,1015.18
2017-04-19T01:10:17.889Z,1015.18
2017-04-19T01:10:58.379Z,1015.25
2017-04-19T01:11:38.838Z,1015.2
2017-04-19T01:12:19.344Z,1015.19
2017-04-19T01:12:59.788Z,1015.18
2017-04-19T01:13:40.284Z,1015.18
2017-04-19T01:14:20.801Z,1015.15
2017-04-19T01:15:01.279Z,1015.16
2017-04-19T01:15:41.725Z,1015.19
2017-04-19T01:16:22.213Z,1015.17
2017-04-19T01:17:02.723Z,1015.2
2017-04-19T01:17:43.237Z,1015.17
2017-04-19T01:18:23.710Z,1015.23
2017-04-19T01:19:04.216Z,1015.18
2017-04-19T01:19:44.700Z,1015.17
2017-04-19T01:20:25.176Z,1015.17
2017-04-19T01:21:05.695Z,1015.22
2017-04-19T01:21:46.149Z,1015.19
2017-04-19T01:22:26.639Z,1015.23
2017-04-19T01:23:07.154Z,1015.27
2017-04-19T01:23:47.620Z,1015.17
2017-04-19T01:24:28.152Z,1015.19
2017-04-19T01:25:08.594Z,1015.18
2017-04-19T01:25:49.073Z,1015.15
2017-04-19T01:26:29.575Z,1015.2
2017-04-19T01:27:10.011Z,1015.2
2017-04-19T01:27:50.532Z,1015.18
2017-04-19T01:28:31.030Z,1015.2
2017-04-19T01:29:11.540Z,1015.22
2017-04-19T01:29:52.030Z,1015.19
2017-04-19T01:30:32.508Z,1015.19
2017-04-19T01:31:13.010Z,1015.15
2017-04-19T01:31:53.462Z,1015.19
2017-04-19T01:32:33.955Z,1015.23
2017-04-19T01:33:14.437Z,1015.21
2017-04-19T01:33:54.901Z,1015.2
2017-04-19T01:34:35.442Z,1015.2
2017-04-19T01:35:15.913Z,1015.23
2017-04-19T01:35:56.382Z,1015.24
2017-04-19T01:36:36.851Z,1015.24
2017-04-19T01:37:17.453Z,1015.29
2017-04-19T01:37:57.852Z,1015.23
2017-04-19T01:38:38.320Z,1015.26
2017-04-19T01:39:18.855Z,1015.27
2017-04-19T01:39:59.345Z,1015.24
2017-04-19T01:40:39.803Z,1015.29
2017-04-19T01:41:20.350Z,1015.23
2017-04-19T01:42:00.792Z,1015.22
2017-04-19T01:42:41.252Z,1015.24
2017-04-19T01:43:21.765Z,1015.3
2017-04-19T01:44:02.239Z,1015.33
2017-04-19T01:44:42.752Z,1015.34
2017-04-19T01:45:23.234Z,1015.3
2017-04-19T01:46:03.736Z,1015.31
2017-04-19T01:46:44.245Z,1015.4
2017-04-19T01:47:24.706Z,1015.31
2017-04-19T01:48:05.189Z,1015.33
2017-04-19T01:48:45.655Z,1015.32
2017-04-19T01:49:26.138Z,1015.28
2017-04-19T01:50:06.633Z,1015.29
2017-04-19T01:50:47.109Z,1015.28
2017-04-19T01:51:27.583Z,1015.37
2017-04-19T01:52:08.053Z,1015.33
2017-04-19T01:52:48.770Z,1015.3
2017-04-19T01:53:29.255Z,1015.28
2017-04-19T01:54:09.754Z,1015.24
2017-04-19T01:54:50.241Z,1015.3
2017-04-19T01:55:30.733Z,1015.28
2017-04-19T01:56:11.223Z,1015.28
2017-04-19T01:56:51.681Z,1015.31
2017-04-19T01:57:32.200Z,1015.24
2017-04-19T01:58:12.663Z,1015.29
2017-04-19T01:58:53.129Z,1015.23
2017-04-19T01:59:33.644Z,1015.3
2017-04-19T02:00:14.139Z,1015.29
2017-04-19T02:00:54.637Z,1015.29
2017-04-19T02:01:35.097Z,1015.31
2017-04-19T02:02:15.597Z,1015.3
2017-04-19T02:02:56.118Z,1015.31
2017-04-19T02:03:36.616Z,1015.3
2017-04-19T02:04:17.057Z,1015.31
2017-04-19T02:04:57.595Z,1015.34
2017-04-19T02:05:38.063Z,1015.31
2017-04-19T02:06:18.611Z,1015.31
2017-04-19T02:06:59.046Z,1015.33
2017-04-19T02:07:39.501Z,1015.31
2017-04-19T02:08:20.058Z,1015.3
2017-04-19T02:09:00.495Z,1015.3
2017-04-19T02:09:40.975Z,1015.32
2017-04-19T02:10:21.459Z,1015.32
2017-04-19T02:11:01.996Z,1015.29
2017-04-19T02:11:42.443Z,1015.35
2017-04-19T02:12:22.931Z,1015.36
2017-04-19T02:13:03.423Z,1015.31
2017-04-19T02:13:43.929Z,1015.29
2017-04-19T02:14:24.423Z,1015.3
2017-04-19T02:15:04.921Z,1015.39
2017-04-19T02:15:45.421Z,1015.37
2017-04-19T02:16:25.913Z,1015.33
2017-04-19T02:17:06.413Z,1015.34
2017-04-19T02:17:46.901Z,1015.32
2017-04-19T02:18:27.419Z,1015.33
2017-04-19T02:19:07.904Z,1015.3
2017-04-19T02:19:48.404Z,1015.31
2017-04-19T02:20:28.913Z,1015.36
2017-04-19T02:21:09.401Z,1015.34
2017-04-19T02:21:49.882Z,1015.31
2017-04-19T02:22:30.370Z,1015.39
2017-04-19T02:23:10.884Z,1015.37
2017-04-19T02:23:51.369Z,1015.39
2017-04-19T02:24:31.806Z,1015.38
2017-04-19T02:25:12.322Z,1015.37
2017-04-19T02:25:52.815Z,1015.36
2017-04-19T02:26:33.306Z,1015.33
2017-04-19T02:27:13.779Z,1015.33
2017-04-19T02:27:54.287Z,1015.41
2017-04-19T02:28:34.769Z,1015.36
2017-04-19T02:29:15.290Z,1015.39
2017-04-19T02:29:55.749Z,1015.39
2017-04-19T02:30:36.330Z,1015.4
2017-04-19T02:31:16.862Z,1015.43
2017-04-19T02:31:57.341Z,1015.42
2017-04-19T02:32:37.843Z,1015.41
2017-04-19T02:33:18.365Z,1015.41
2017-04-19T02:33:58.793Z,1015.43
2017-04-19T02:34:39.337Z,1015.45
2017-04-19T02:35:19.787Z,1015.41
2017-04-19T02:36:00.262Z,1015.44
2017-04-19T02:36:40.750Z,1015.42
2017-04-19T02:37:21.302Z,1015.42
2017-04-19T02:38:01.751Z,1015.43
2017-04-19T02:38:42.258Z,1015.46
2017-04-19T02:39:22.779Z,1015.49
2017-04-19T02:40:03.267Z,1015.46
2017-04-19T02:40:43.838Z,1015.45
2017-04-19T02:41:24.248Z,1015.49
2017-04-19T02:42:04.769Z,1015.5
2017-04-19T02:42:45.227Z,1015.52
2017-04-19T02:43:25.715Z,1015.45
2017-04-19T02:44:06.206Z,1015.5
2017-04-19T02:44:46.689Z,1015.48
2017-04-19T02:45:27.187Z,1015.48
2017-04-19T02:46:07.670Z,1015.46
2017-04-19T02:46:48.176Z,1015.49
2017-04-19T02:47:28.637Z,1015.5
2017-04-19T02:48:09.135Z,1015.5
2017-04-19T02:48:49.659Z,1015.5
2017-04-19T02:49:30.146Z,1015.48
2017-04-19T02:50:10.647Z,1015.47
2017-04-19T02:50:51.120Z,1015.52
2017-04-19T02:51:31.595Z,1015.48
2017-04-19T02:52:12.115Z,1015.46
2017-04-19T02:52:52.564Z,1015.53
2017-04-19T02:53:33.078Z,1015.54
2017-04-19T02:54:13.557Z,1015.5
2017-04-19T02:54:54.058Z,1015.51
2017-04-19T02:55:34.576Z,1015.49
2017-04-19T02:56:15.053Z,1015.53
2017-04-19T02:56:55.576Z,1015.54
2017-04-19T02:57:36.051Z,1015.51
2017-04-19T02:58:16.564Z,1015.54
2017-04-19T02:58:57.030Z,1015.47
2017-04-19T02:59:37.488Z,1015.5
2017-04-19T03:00:17.996Z,1015.52
2017-04-19T03:00:58.474Z,1015.5
2017-04-19T03:01:38.992Z,1015.52
2017-04-19T03:02:19.481Z,1015.5
2017-04-19T03:02:59.987Z,1015.53
2017-04-19T03:03:40.449Z,1015.56
2017-04-19T03:04:20.903Z,1015.54
2017-04-19T03:05:01.440Z,1015.51
2017-04-19T03:05:41.893Z,1015.5
2017-04-19T03:06:22.368Z,1015.53
2017-04-19T03:07:02.862Z,1015.55
2017-04-19T03:07:43.349Z,1015.52
2017-04-19T03:08:23.831Z,1015.5
2017-04-19T03:09:04.383Z,1015.53
2017-04-19T03:09:44.857Z,1015.53
2017-04-19T03:10:25.328Z,1015.54
2017-04-19T03:11:05.836Z,1015.57
2017-04-19T03:11:46.323Z,1015.59
2017-04-19T03:12:26.794Z,1015.57
2017-04-19T03:13:07.248Z,1015.59
2017-04-19T03:13:47.791Z,1015.66
2017-04-19T03:14:28.316Z,1015.62
2017-04-19T03:15:08.850Z,1015.62
2017-04-19T03:15:49.362Z,1015.57
2017-04-19T03:16:29.863Z,1015.59
2017-04-19T03:17:10.319Z,1015.6
2017-04-19T03:17:50.798Z,1015.56
2017-04-19T03:18:31.330Z,1015.62
2017-04-19T03:19:11.783Z,1015.57
2017-04-19T03:19:52.628Z,1015.6
2017-04-19T03:20:33.157Z,1015.55
2017-04-19T03:21:13.627Z,1015.59
2017-04-19T03:21:54.145Z,1015.63
2017-04-19T03:22:34.624Z,1015.59
2017-04-19T03:23:15.106Z,1015.6
2017-04-19T03:23:55.577Z,1015.61
2017-04-19T03:24:36.085Z,1015.66
2017-04-19T03:25:16.569Z,1015.66
2017-04-19T03:25:57.080Z,1015.66
2017-04-19T03:26:37.569Z,1015.69
2017-04-19T03:27:18.060Z,1015.65
2017-04-19T03:27:58.550Z,1015.62
2017-04-19T03:28:39.025Z,1015.63
2017-04-19T03:29:19.516Z,1015.68
2017-04-19T03:30:00.430Z,1015.58
2017-04-19T03:30:41.322Z,1015.57
2017-04-19T03:31:23.940Z,1015.65
2017-04-19T03:32:07.931Z,1015.62
2017-04-19T03:34:03.483Z,1015.63
2017-04-19T03:34:43.980Z,1015.71
2017-04-19T03:35:24.477Z,1015.65
2017-04-19T03:36:05.011Z,1015.7
2017-04-19T03:36:45.624Z,1015.69
2017-04-19T03:37:26.191Z,1015.67
2017-04-19T03:38:06.605Z,1015.7
2017-04-19T03:38:47.498Z,1015.7
2017-04-19T03:39:27.910Z,1015.71
2017-04-19T03:40:08.444Z,1015.74
2017-04-19T03:40:49.365Z,1015.72
2017-04-19T03:41:29.797Z,1015.69
2017-04-19T03:42:10.344Z,1015.7
2017-04-19T03:42:50.889Z,1015.68
2017-04-19T03:43:31.370Z,1015.71
2017-04-19T03:44:11.985Z,1015.77
2017-04-19T03:44:52.970Z,1015.71
2017-04-19T03:45:33.274Z,1015.69
2017-04-19T03:46:13.765Z,1015.74
2017-04-19T03:46:54.253Z,1015.69
2017-04-19T03:47:34.728Z,1015.73
2017-04-19T03:48:15.217Z,1015.77
2017-04-19T03:48:55.694Z,1015.74
2017-04-19T03:49:36.182Z,1015.78
2017-04-19T03:50:16.628Z,1015.75
2017-04-19T03:50:57.189Z,1015.77
2017-04-19T03:51:37.689Z,1015.74
2017-04-19T03:52:18.157Z,1015.76
2017-04-19T03:52:58.658Z,1015.79
2017-04-19T03:53:39.122Z,1015.76
2017-04-19T03:54:19.579Z,1015.76
2017-04-19T03:55:00.064Z,1015.78
2017-04-19T03:55:40.553Z,1015.77
2017-04-19T03:56:21.045Z,1015.76
2017-04-19T03:57:01.524Z,1015.77
2017-04-19T03:57:41.979Z,1015.76
2017-04-19T03:58:22.487Z,1015.76
2017-04-19T03:59:02.936Z,1015.78
2017-04-19T03:59:43.426Z,1015.85
2017-04-19T04:00:23.915Z,1015.81
2017-04-19T04:01:04.391Z,1015.78
2017-04-19T04:01:44.882Z,1015.8
2017-04-19T04:02:25.371Z,1015.85
2017-04-19T04:03:05.866Z,1015.85
2017-04-19T04:03:46.379Z,1015.79
2017-04-19T04:04:26.825Z,1015.91
2017-04-19T04:05:07.321Z,1015.82
2017-04-19T04:05:47.818Z,1015.81
2017-04-19T04:06:28.300Z,1015.84
2017-04-19T04:07:08.808Z,1015.81
2017-04-19T04:07:49.719Z,1015.87
2017-04-19T04:08:30.159Z,1015.81
2017-04-19T04:09:10.720Z,1015.82
2017-04-19T04:09:51.152Z,1015.83
2017-04-19T04:10:31.745Z,1015.83
2017-04-19T04:11:12.274Z,1015.82
2017-04-19T04:11:52.720Z,1015.82
2017-04-19T04:12:33.147Z,1015.82
2017-04-19T04:13:13.634Z,1015.87
2017-04-19T04:13:54.295Z,1015.86
2017-04-19T04:14:35.433Z,1015.86
2017-04-19T04:15:15.922Z,1015.86
2017-04-19T04:15:56.474Z,1015.88
2017-04-19T04:16:36.965Z,1015.89
2017-04-19T04:17:17.519Z,1015.87
2017-04-19T04:17:57.999Z,1015.9
2017-04-19T04:18:38.705Z,1015.9
2017-04-19T04:19:19.176Z,1015.88
2017-04-19T04:19:59.808Z,1015.96
2017-04-19T04:20:40.306Z,1015.93
2017-04-19T04:21:20.647Z,1015.91
2017-04-19T04:22:01.186Z,1015.93
2017-04-19T04:22:42.119Z,1015.92
2017-04-19T04:23:22.523Z,1015.92
2017-04-19T04:24:03.043Z,1015.94
2017-04-19T04:24:43.745Z,1015.93
2017-04-19T04:25:24.631Z,1015.94
2017-04-19T04:26:05.099Z,1015.94
2017-04-19T04:26:45.664Z,1015.98
2017-04-19T04:27:26.214Z,1015.91
2017-04-19T04:28:06.668Z,1015.99
2017-04-19T04:28:47.125Z,1015.95
2017-04-19T04:29:27.687Z,1015.97
2017-04-19T04:30:08.098Z,1015.98
2017-04-19T04:30:48.679Z,1015.92
2017-04-19T04:31:29.162Z,1015.96
2017-04-19T04:32:09.672Z,1015.98
2017-04-19T04:32:50.192Z,1016
2017-04-19T04:33:30.663Z,1016.02
2017-04-19T04:34:11.127Z,1016.01
2017-04-19T04:34:51.617Z,1016.04
2017-04-19T04:35:32.324Z,1016
2017-04-19T04:36:12.893Z,1016.01
2017-04-19T04:36:53.323Z,1015.98
2017-04-19T04:37:33.799Z,1016
2017-04-19T04:38:14.360Z,1016.03
2017-04-19T04:38:54.793Z,1016
2017-04-19T04:39:35.314Z,1016
2017-04-19T04:40:15.772Z,1015.98
2017-04-19T04:40:56.270Z,1016
2017-04-19T04:41:36.763Z,1015.9
2017-04-19T04:42:17.252Z,1016.01
2017-04-19T04:42:57.713Z,1016.02
2017-04-19T04:43:38.204Z,1016
2017-04-19T04:44:18.665Z,1016.05
2017-04-19T04:44:59.183Z,1016.01
2017-04-19T04:45:39.666Z,1015.98
2017-04-19T04:46:20.175Z,1016.03
2017-04-19T04:47:00.644Z,1016
2017-04-19T04:47:41.122Z,1016.03
2017-04-19T04:48:21.608Z,1016.02
2017-04-19T04:49:02.106Z,1016.04
2017-04-19T04:49:42.576Z,1016.02
2017-04-19T04:50:23.039Z,1016.05
2017-04-19T04:51:03.506Z,1016.01
2017-04-19T04:51:44.042Z,1016.03
2017-04-19T04:52:24.553Z,1016.07
2017-04-19T04:53:05.265Z,1016.1
2017-04-19T04:53:45.685Z,1016.1
2017-04-19T04:54:26.221Z,1016.07
2017-04-19T04:55:06.672Z,1016.1
2017-04-19T04:55:47.156Z,1016.05
2017-04-19T04:56:27.664Z,1016.1
2017-04-19T04:57:08.146Z,1016.09
2017-04-19T04:57:48.576Z,1016.09
2017-04-19T04:58:29.082Z,1016.09
2017-04-19T04:59:09.605Z,1016.19
2017-04-19T04:59:50.060Z,1016.13
2017-04-19T05:00:30.572Z,1016.14
2017-04-19T05:01:11.067Z,1016.14
2017-04-19T05:01:51.536Z,1016.18
2017-04-19T05:02:32.027Z,1016.13
2017-04-19T05:03:12.521Z,1016.33
2017-04-19T05:03:53.024Z,1016.26
2017-04-19T05:04:33.472Z,1016.19
2017-04-19T05:05:14.013Z,1016.25
2017-04-19T05:05:54.444Z,1016.31
2017-04-19T05:06:34.948Z,1016.23
2017-04-19T05:07:15.499Z,1016.24
2017-04-19T05:07:55.953Z,1016.28
2017-04-19T05:08:36.622Z,1016.23
2017-04-19T05:09:17.137Z,1016.25
2017-04-19T05:09:57.618Z,1016.32
2017-04-19T05:10:38.130Z,1016.28
2017-04-19T05:11:18.601Z,1016.27
2017-04-19T05:11:59.062Z,1016.29
2017-04-19T05:12:39.600Z,1016.29
2017-04-19T05:13:20.108Z,1016.26
2017-04-19T05:14:00.993Z,1016.26
2017-04-19T05:14:41.085Z,1016.24
2017-04-19T05:15:21.667Z,1016.27
2017-04-19T05:16:02.200Z,1016.27
2017-04-19T05:16:42.537Z,1016.28
2017-04-19T05:17:23.051Z,1016.25
2017-04-19T05:18:03.521Z,1016.3
2017-04-19T05:18:43.981Z,1016.26
2017-04-19T05:19:24.443Z,1016.27
2017-04-19T05:20:04.902Z,1016.31
2017-04-19T05:20:45.427Z,1016.29
2017-04-19T05:21:25.862Z,1016.29
2017-04-19T05:22:06.339Z,1016.3
2017-04-19T05:22:46.844Z,1016.3
2017-04-19T05:23:27.327Z,1016.29
2017-04-19T05:24:07.868Z,1016.33
2017-04-19T05:24:48.358Z,1016.34
2017-04-19T05:25:28.845Z,1016.29
2017-04-19T05:26:09.283Z,1016.38
2017-04-19T05:26:49.741Z,1016.35
2017-04-19T05:27:30.294Z,1016.32
2017-04-19T05:28:10.842Z,1016.35
2017-04-19T05:28:51.389Z,1016.32
2017-04-19T05:29:31.904Z,1016.39
2017-04-19T05:30:12.356Z,1016.36
2017-04-19T05:30:52.883Z,1016.36
2017-04-19T05:31:33.470Z,1016.39
2017-04-19T05:32:13.892Z,1016.37
2017-04-19T05:32:54.327Z,1016.41
2017-04-19T05:33:34.823Z,1016.38
2017-04-19T05:34:15.381Z,1016.37
2017-04-19T05:34:55.888Z,1016.36
2017-04-19T05:35:36.503Z,1016.38
2017-04-19T05:36:16.967Z,1016.42
2017-04-19T05:36:57.475Z,1016.41
2017-04-19T05:37:37.973Z,1016.43
2017-04-19T05:38:18.422Z,1016.41
2017-04-19T05:38:58.949Z,1016.39
2017-04-19T05:39:39.439Z,1016.39
2017-04-19T05:40:19.945Z,1016.41
2017-04-19T05:41:01.622Z,1016.45
2017-04-19T05:41:41.466Z,1016.44
2017-04-19T05:42:21.884Z,1016.48
2017-04-19T05:43:02.437Z,1016.45
2017-04-19T05:43:42.986Z,1016.45
2017-04-19T05:44:23.525Z,1016.47
2017-04-19T05:45:03.947Z,1016.45
2017-04-19T05:45:44.466Z,1016.45
2017-04-19T05:46:24.991Z,1016.48
2017-04-19T05:47:07.169Z,1016.47
2017-04-19T05:47:47.612Z,1016.47
2017-04-19T05:48:28.160Z,1016.48
2017-04-19T05:49:08.579Z,1016.51
2017-04-19T05:49:49.108Z,1016.49
2017-04-19T05:50:29.610Z,1016.55
2017-04-19T05:51:10.059Z,1016.48
2017-04-19T05:51:50.587Z,1016.51
2017-04-19T05:52:31.191Z,1016.52
2017-04-19T05:53:11.692Z,1016.53
2017-04-19T05:53:52.173Z,1016.49
2017-04-19T05:54:32.693Z,1016.55
2017-04-19T05:55:13.136Z,1016.52
2017-04-19T05:55:53.640Z,1016.49
2017-04-19T05:56:34.122Z,1016.53
2017-04-19T05:57:14.578Z,1016.5
2017-04-19T05:57:55.241Z,1016.59
2017-04-19T05:58:35.587Z,1016.54
2017-04-19T05:59:16.079Z,1016.58
2017-04-19T05:59:56.541Z,1016.53
2017-04-19T06:00:37.034Z,1016.62
2017-04-19T06:01:17.503Z,1016.6
2017-04-19T06:01:57.988Z,1016.61
2017-04-19T06:02:38.567Z,1016.59
2017-04-19T06:03:19.768Z,1016.62
2017-04-19T06:04:00.042Z,1016.58
2017-04-19T06:04:41.154Z,1016.58
2017-04-19T06:05:21.163Z,1016.61
2017-04-19T06:06:02.515Z,1016.66
2017-04-19T06:06:42.872Z,1016.58
2017-04-19T06:07:23.377Z,1016.63
2017-04-19T06:08:03.844Z,1016.54
2017-04-19T06:08:44.948Z,1016.61
2017-04-19T06:09:25.484Z,1016.62
2017-04-19T06:10:06.085Z,1016.59
2017-04-19T06:10:46.556Z,1016.64
2017-04-19T06:11:27.642Z,1016.63
2017-04-19T06:12:08.088Z,1016.64
2017-04-19T06:12:48.573Z,1016.67
2017-04-19T06:13:29.334Z,1016.65
2017-04-19T06:14:09.827Z,1016.62
2017-04-19T06:14:50.252Z,1016.69
2017-04-19T06:15:30.889Z,1016.61
2017-04-19T06:16:12.338Z,1016.66
2017-04-19T06:16:52.852Z,1016.69
2017-04-19T06:17:33.323Z,1016.66
2017-04-19T06:18:13.818Z,1016.68
2017-04-19T06:18:54.283Z,1016.67
2017-04-19T06:19:34.830Z,1016.68
2017-04-19T06:20:15.331Z,1016.66
2017-04-19T06:20:57.109Z,1016.66
2017-04-19T06:21:36.866Z,1016.73
2017-04-19T06:22:17.421Z,1016.71
2017-04-19T06:22:57.859Z,1016.7
2017-04-19T06:23:38.381Z,1016.68
2017-04-19T06:24:18.869Z,1016.69
2017-04-19T06:24:59.368Z,1016.77
2017-04-19T06:25:40.341Z,1016.73
2017-04-19T06:26:20.857Z,1016.71
2017-04-19T06:27:01.347Z,1016.75
2017-04-19T06:27:41.830Z,1016.76
2017-04-19T06:28:22.444Z,1016.77
2017-04-19T06:29:02.834Z,1016.75
2017-04-19T06:29:43.337Z,1016.76
2017-04-19T06:30:23.829Z,1016.77
2017-04-19T06:31:05.164Z,1016.8
2017-04-19T06:31:45.035Z,1016.77
2017-04-19T06:32:25.609Z,1016.8
2017-04-19T06:33:06.094Z,1016.78
2017-04-19T06:33:46.570Z,1016.82
2017-04-19T06:34:27.100Z,1016.83
2017-04-19T06:35:07.599Z,1016.84
2017-04-19T06:35:48.172Z,1016.87
2017-04-19T06:36:29.977Z,1016.85
2017-04-19T06:37:10.172Z,1016.83
2017-04-19T06:39:29.121Z,1016.82
2017-04-19T06:40:09.636Z,1016.89
2017-04-19T06:40:50.128Z,1016.89
2017-04-19T06:41:30.620Z,1016.92
2017-04-19T06:42:11.151Z,1016.84
2017-04-19T06:42:51.616Z,1016.88
2017-04-19T06:43:32.115Z,1016.96
2017-04-19T06:44:12.639Z,1016.95
2017-04-19T06:44:53.095Z,1016.98
2017-04-19T06:45:33.575Z,1016.99
2017-04-19T06:46:14.082Z,1016.94
2017-04-19T06:46:54.616Z,1016.99
2017-04-19T06:47:35.372Z,1016.94
2017-04-19T06:48:15.825Z,1016.88
2017-04-19T06:48:56.850Z,1016.92
2017-04-19T06:49:37.325Z,1016.97
2017-04-19T06:50:18.718Z,1016.99
2017-04-19T06:50:59.305Z,1017
2017-04-19T06:51:39.772Z,1016.95
2017-04-19T06:52:20.214Z,1017.01
2017-04-19T06:53:00.717Z,1017.01
2017-04-19T06:53:41.289Z,1017.03
2017-04-19T06:54:21.864Z,1016.94
2017-04-19T06:55:02.358Z,1017.02
2017-04-19T06:55:42.906Z,1017.02
2017-04-19T06:56:23.434Z,1016.95
2017-04-19T06:57:04.221Z,1017
2017-04-19T06:57:44.948Z,1017.01
2017-04-19T06:58:25.566Z,1017
2017-04-19T06:59:05.976Z,1017.04
2017-04-19T06:59:46.506Z,1017.11
2017-04-19T07:00:27.965Z,1017.08
2017-04-19T07:01:08.797Z,1017.08
2017-04-19T07:01:49.322Z,1017.08
2017-04-19T07:02:29.800Z,1017.06
2017-04-19T07:03:10.286Z,1017.06
2017-04-19T07:03:50.905Z,1017.09
2017-04-19T07:04:31.360Z,1017.07
2017-04-19T07:05:11.973Z,1017.12
2017-04-19T07:05:52.588Z,1017.03
2017-04-19T07:06:33.268Z,1017.05
2017-04-19T07:07:14.523Z,1017.06
2017-04-19T07:07:55.053Z,1017.03
2017-04-19T07:08:35.486Z,1017.02
2017-04-19T07:09:16.023Z,1017.14
2017-04-19T07:09:57.399Z,1017.08
2017-04-19T07:10:38.028Z,1017.07
2017-04-19T07:11:19.014Z,1017.05
2017-04-19T07:11:59.485Z,1017.08
2017-04-19T07:12:40.008Z,1017.07
2017-04-19T07:13:20.712Z,1017.08
2017-04-19T07:14:01.223Z,1017.1
2017-04-19T07:14:42.593Z,1017.09
2017-04-19T07:15:22.832Z,1017.13
2017-04-19T07:16:03.725Z,1017.05
2017-04-19T07:16:44.428Z,1017.08
2017-04-19T07:17:24.905Z,1017.16
2017-04-19T07:18:05.401Z,1017.1
2017-04-19T07:18:45.931Z,1017.21
2017-04-19T07:19:26.449Z,1017.21
2017-04-19T07:20:06.967Z,1017.17
2017-04-19T07:20:47.632Z,1017.2
2017-04-19T07:21:28.116Z,1017.18
2017-04-19T07:22:08.704Z,1017.24
2017-04-19T07:22:49.322Z,1017.17
2017-04-19T07:23:29.837Z,1017.21
2017-04-19T07:24:10.331Z,1017.19
2017-04-19T07:24:51.094Z,1017.22
2017-04-19T07:25:31.403Z,1017.14
2017-04-19T07:26:11.957Z,1017.2
2017-04-19T07:26:52.421Z,1017.2
2017-04-19T07:27:33.067Z,1017.18
2017-04-19T07:28:13.621Z,1017.26
2017-04-19T07:28:54.289Z,1017.26
2017-04-19T07:29:35.015Z,1017.25
2017-04-19T07:30:15.656Z,1017.22
2017-04-19T07:30:56.222Z,1017.22
2017-04-19T07:31:36.782Z,1017.28
2017-04-19T07:32:17.300Z,1017.24
2017-04-19T07:32:57.832Z,1017.18
2017-04-19T07:33:38.290Z,1017.24
2017-04-19T07:34:18.710Z,1017.22
2017-04-19T07:34:59.187Z,1017.25
2017-04-19T07:35:39.721Z,1017.2
2017-04-19T07:36:20.488Z,1017.25
2017-04-19T07:37:01.302Z,1017.22
2017-04-19T07:37:41.865Z,1017.23
2017-04-19T07:38:22.366Z,1017.19
2017-04-19T07:39:03.243Z,1017.23
2017-04-19T07:39:44.104Z,1017.15
2017-04-19T07:40:24.314Z,1017.22
2017-04-19T07:41:04.808Z,1017.2
2017-04-19T07:41:45.650Z,1017.2
2017-04-19T07:42:26.257Z,1017.22
2017-04-19T07:43:07.042Z,1017.19
2017-04-19T07:43:48.083Z,1017.28
2017-04-19T07:44:28.571Z,1017.18
2017-04-19T07:45:09.015Z,1017.24
2017-04-19T07:45:49.565Z,1017.19
2017-04-19T07:46:30.074Z,1017.19
2017-04-19T07:47:10.607Z,1017.18
2017-04-19T07:47:51.221Z,1017.28
2017-04-19T07:48:31.735Z,1017.26
2017-04-19T07:49:12.461Z,1017.25
2017-04-19T07:49:52.976Z,1017.33
2017-04-19T07:50:34.026Z,1017.27
2017-04-19T07:51:16.099Z,1017.22
2017-04-19T07:51:56.037Z,1017.22
2017-04-19T07:52:36.593Z,1017.15
2017-04-19T07:53:18.594Z,1017.21
2017-04-19T07:53:59.123Z,1017.25
2017-04-19T07:54:39.562Z,1017.23
2017-04-19T07:55:20.135Z,1017.31
2017-04-19T07:56:00.564Z,1017.28
2017-04-19T07:56:41.074Z,1017.26
2017-04-19T07:57:21.684Z,1017.23
2017-04-19T07:58:02.352Z,1017.31
2017-04-19T07:58:42.747Z,1017.29
2017-04-19T07:59:23.252Z,1017.33
2017-04-19T08:00:03.808Z,1017.27
2017-04-19T08:00:44.438Z,1017.3
2017-04-19T08:01:25.619Z,1017.28
2017-04-19T08:02:06.736Z,1017.32
2017-04-19T08:02:47.295Z,1017.33
2017-04-19T08:03:27.895Z,1017.35
2017-04-19T08:04:08.725Z,1017.29
2017-04-19T08:04:49.278Z,1017.36
2017-04-19T08:05:29.752Z,1017.29
2017-04-19T08:06:10.258Z,1017.28
2017-04-19T08:06:50.841Z,1017.31
2017-04-19T08:07:31.374Z,1017.37
2017-04-19T08:08:12.171Z,1017.39
2017-04-19T08:08:52.460Z,1017.32
2017-04-19T08:09:33.123Z,1017.37
2017-04-19T08:10:13.592Z,1017.39
2017-04-19T08:10:54.434Z,1017.3
2017-04-19T08:11:34.951Z,1017.32
2017-04-19T08:12:15.477Z,1017.37
2017-04-19T08:12:56.123Z,1017.32
2017-04-19T08:13:36.633Z,1017.4
2017-04-19T08:14:17.066Z,1017.39
2017-04-19T08:14:57.847Z,1017.49
2017-04-19T08:15:40.138Z,1017.35